Time;durP1;ratioP1;P1;durP2;ratioP2;P2;SDS_P1;SDS_P2;PMS_P1;PMS_P2;Temp;Humidity;BMP_temperature;BMP_pressure;BME280_temperature;BME280_humidity;BME280_pressure;Samples;Min_cycle;Max_cycle;Signal;HPM_P1;HPM_P2
2022/03/13 00:00:45;;;;;;;73.03;51.67;;;18.60;54.10;;;;;;4917630;28;95444;-68
2022/03/13 00:03:12;;;;;;;70.75;51.80;;;18.60;54.10;;;;;;4902899;28;95932;-66
2022/03/13 00:05:40;;;;;;;72.07;51.80;;;18.60;54.00;;;;;;4909527;28;94919;-67
2022/03/13 00:08:32;;;;;;;72.32;51.72;;;18.60;54.10;;;;;;4930949;28;95688;-67
2022/03/13 00:11:10;;;;;;;70.68;51.20;;;18.60;54.10;;;;;;4913029;28;98667;-67
2022/03/13 00:13:48;;;;;;;70.65;51.40;;;18.60;54.20;;;;;;4908361;28;95122;-67
2022/03/13 00:16:15;;;;;;;70.82;51.72;;;18.60;54.20;;;;;;4929007;28;96137;-67
2022/03/13 00:18:44;;;;;;;72.90;51.45;;;18.60;54.30;;;;;;4913401;28;97399;-66
2022/03/13 00:21:11;;;;;;;70.20;51.17;;;18.60;54.30;;;;;;4913119;28;96145;-66
2022/03/13 00:23:36;;;;;;;72.50;51.30;;;18.60;54.30;;;;;;4917658;28;95372;-65
2022/03/13 00:26:03;;;;;;;70.82;51.45;;;18.60;54.20;;;;;;4914892;28;96880;-67
2022/03/13 00:28:30;;;;;;;72.05;51.75;;;18.60;54.20;;;;;;4906310;28;96075;-65
2022/03/13 00:30:56;;;;;;;73.80;51.53;;;18.60;54.30;;;;;;4931463;28;98139;-65
2022/03/13 00:33:22;;;;;;;70.28;51.22;;;18.60;54.30;;;;;;4909971;28;94760;-67
2022/03/13 00:35:49;;;;;;;70.07;51.40;;;18.60;54.20;;;;;;4919376;28;94226;-64
2022/03/13 00:38:15;;;;;;;71.10;51.33;;;18.70;54.20;;;;;;4911079;28;95128;-67
2022/03/13 00:40:41;;;;;;;71.03;51.38;;;18.60;54.30;;;;;;4919388;28;95284;-65
2022/03/13 00:43:07;;;;;;;70.60;51.25;;;18.70;54.20;;;;;;4893936;28;96951;-68
2022/03/13 00:45:33;;;;;;;72.50;51.28;;;18.60;54.30;;;;;;4897091;28;96428;-66
2022/03/13 00:48:00;;;;;;;74.95;51.58;;;18.70;54.30;;;;;;4898132;28;95618;-68
2022/03/13 00:50:26;;;;;;;71.07;51.65;;;18.70;54.30;;;;;;4911344;28;95793;-66
2022/03/13 00:52:52;;;;;;;76.45;51.72;;;18.70;54.10;;;;;;4907595;28;96062;-67
2022/03/13 00:55:18;;;;;;;72.60;51.35;;;18.70;54.10;;;;;;4925633;28;96194;-68
2022/03/13 00:57:43;;;;;;;72.65;51.83;;;18.70;54.10;;;;;;4904839;28;96140;-68
2022/03/13 01:00:11;;;;;;;72.78;51.50;;;18.70;54.20;;;;;;4910164;28;95430;-68
2022/03/13 01:02:38;;;;;;;71.30;51.33;;;18.70;54.10;;;;;;4920091;28;96355;-68
2022/03/13 01:05:04;;;;;;;72.30;51.47;;;18.70;54.10;;;;;;4915223;28;94856;-69
2022/03/13 01:07:30;;;;;;;70.47;51.42;;;18.70;54.00;;;;;;4909727;28;97280;-68
2022/03/13 01:09:55;;;;;;;72.20;51.25;;;18.70;54.00;;;;;;4917380;28;95241;-68
2022/03/13 01:12:21;;;;;;;70.60;51.30;;;18.70;53.90;;;;;;4907257;28;95165;-68
2022/03/13 01:14:47;;;;;;;70.38;51.10;;;18.60;53.90;;;;;;4928924;28;94904;-68
2022/03/13 01:17:13;;;;;;;72.40;51.35;;;18.70;53.90;;;;;;4910182;28;95901;-68
2022/03/13 01:19:38;;;;;;;72.10;51.20;;;18.60;53.90;;;;;;4915554;28;97093;-67
2022/03/13 01:22:06;;;;;;;71.22;51.35;;;18.60;53.70;;;;;;4910860;28;95600;-67
2022/03/13 01:24:51;;;;;;;70.93;50.97;;;18.60;53.90;;;;;;4916810;28;94601;-68
2022/03/13 01:27:17;;;;;;;70.35;51.28;;;18.60;53.80;;;;;;4908145;28;95961;-68
2022/03/13 01:29:44;;;;;;;70.68;51.50;;;18.60;53.70;;;;;;4918132;28;95902;-68
2022/03/13 01:32:12;;;;;;;70.03;50.65;;;18.60;53.60;;;;;;4915359;28;96558;-68
2022/03/13 01:34:44;;;;;;;70.15;50.97;;;18.60;53.70;;;;;;4914688;28;95784;-68
2022/03/13 01:37:23;;;;;;;70.43;51.22;;;18.60;53.60;;;;;;4912531;28;96401;-68
2022/03/13 01:39:48;;;;;;;69.65;50.90;;;18.60;53.60;;;;;;4914968;28;95510;-67
2022/03/13 01:42:15;;;;;;;71.10;51.15;;;18.60;53.70;;;;;;4924387;28;97609;-68
2022/03/13 01:44:41;;;;;;;69.68;50.83;;;18.60;53.60;;;;;;4914467;28;95162;-68
2022/03/13 01:47:07;;;;;;;69.68;50.70;;;18.60;53.40;;;;;;4910767;28;95247;-68
2022/03/13 01:49:34;;;;;;;69.95;50.75;;;18.60;53.50;;;;;;4912019;28;95019;-68
2022/03/13 01:52:01;;;;;;;69.90;50.90;;;18.60;53.50;;;;;;4917504;28;96868;-68
2022/03/13 01:54:27;;;;;;;68.93;50.40;;;18.60;53.40;;;;;;4910855;28;95292;-67
2022/03/13 01:56:53;;;;;;;70.38;50.45;;;18.50;53.50;;;;;;4914268;28;95565;-67
2022/03/13 01:59:20;;;;;;;70.28;50.78;;;18.50;53.30;;;;;;4912954;28;96383;-67
2022/03/13 02:01:46;;;;;;;70.85;50.85;;;18.50;53.30;;;;;;4919708;28;101859;-68
2022/03/13 02:04:12;;;;;;;71.25;51.05;;;18.50;53.30;;;;;;4918819;28;102589;-68
2022/03/13 02:06:39;;;;;;;69.25;50.55;;;18.50;53.40;;;;;;4914453;28;95311;-68
2022/03/13 02:09:06;;;;;;;70.20;50.88;;;18.50;53.30;;;;;;4909335;28;95270;-67
2022/03/13 02:11:40;;;;;;;70.72;50.70;;;18.50;53.20;;;;;;4917404;28;95357;-67
2022/03/13 02:14:08;;;;;;;69.85;50.63;;;18.50;53.30;;;;;;4912659;28;97236;-68
2022/03/13 02:16:34;;;;;;;68.78;50.72;;;18.50;53.30;;;;;;4908939;28;95221;-67
2022/03/13 02:19:00;;;;;;;68.85;50.47;;;18.40;53.10;;;;;;4907882;28;95996;-68
2022/03/13 02:21:28;;;;;;;69.60;50.53;;;18.40;53.10;;;;;;4914226;28;97223;-67
2022/03/13 02:24:02;;;;;;;68.85;50.38;;;18.40;53.20;;;;;;4917078;28;95074;-67
2022/03/13 02:26:30;;;;;;;68.85;50.63;;;18.40;53.30;;;;;;4917385;28;95482;-68
2022/03/13 02:28:56;;;;;;;69.28;50.65;;;18.40;53.20;;;;;;4906003;28;95332;-67
2022/03/13 02:31:31;;;;;;;70.10;50.67;;;18.30;53.10;;;;;;4913706;28;95211;-68
2022/03/13 02:33:58;;;;;;;68.78;50.22;;;18.30;53.30;;;;;;4905812;28;95518;-68
2022/03/13 02:36:45;;;;;;;71.32;50.85;;;18.30;53.10;;;;;;4913822;28;95440;-67
2022/03/13 02:39:11;;;;;;;68.68;50.45;;;18.30;53.10;;;;;;4913806;28;94365;-67
2022/03/13 02:41:41;;;;;;;68.95;50.40;;;18.30;53.60;;;;;;4916816;28;95130;-68
2022/03/13 02:44:08;;;;;;;69.90;50.70;;;18.30;53.10;;;;;;4914880;28;95236;-68
2022/03/13 02:47:04;;;;;;;69.47;50.58;;;18.30;53.10;;;;;;4906144;28;98543;-67
2022/03/13 02:49:31;;;;;;;68.40;50.45;;;18.30;53.10;;;;;;4907325;28;96132;-68
2022/03/13 02:52:03;;;;;;;70.00;50.55;;;18.30;53.20;;;;;;4920724;28;96500;-68
2022/03/13 02:54:30;;;;;;;68.53;50.40;;;18.20;53.20;;;;;;4909818;28;96105;-68
2022/03/13 02:56:56;;;;;;;70.00;50.20;;;18.30;53.10;;;;;;4916915;28;97042;-68
2022/03/13 02:59:21;;;;;;;68.60;50.30;;;18.20;53.00;;;;;;4917137;28;95484;-68
2022/03/13 03:01:48;;;;;;;68.63;50.33;;;18.20;53.10;;;;;;4917236;28;95053;-68
2022/03/13 03:04:14;;;;;;;68.57;50.25;;;18.20;53.10;;;;;;4905179;28;94616;-69
2022/03/13 03:06:49;;;;;;;68.32;50.42;;;18.20;53.10;;;;;;4910277;28;98084;-68
2022/03/13 03:09:17;;;;;;;69.18;50.55;;;18.20;53.10;;;;;;4912699;28;101346;-68
2022/03/13 03:11:43;;;;;;;70.03;50.35;;;18.20;53.10;;;;;;4917616;28;99071;-68
2022/03/13 03:14:10;;;;;;;68.88;50.38;;;18.20;53.10;;;;;;4912896;28;97704;-68
2022/03/13 03:16:36;;;;;;;68.97;50.22;;;18.20;53.10;;;;;;4909397;28;96725;-67
2022/03/13 03:19:02;;;;;;;69.85;50.33;;;18.20;53.00;;;;;;4911785;28;96081;-68
2022/03/13 03:21:27;;;;;;;68.80;50.65;;;18.20;53.00;;;;;;4913608;28;98583;-68
2022/03/13 03:23:53;;;;;;;68.38;50.35;;;18.20;53.10;;;;;;4910201;28;95754;-68
2022/03/13 03:26:19;;;;;;;68.40;50.17;;;18.20;53.00;;;;;;4918256;28;95129;-67
2022/03/13 03:28:45;;;;;;;68.47;50.33;;;18.20;53.00;;;;;;4908161;28;94750;-68
2022/03/13 03:31:11;;;;;;;68.32;50.47;;;18.10;52.80;;;;;;4915690;28;95532;-68
2022/03/13 03:33:37;;;;;;;68.90;50.63;;;18.10;53.00;;;;;;4910562;28;96919;-67
2022/03/13 03:36:02;;;;;;;68.15;50.35;;;18.20;52.90;;;;;;4909899;28;95791;-67
2022/03/13 03:38:28;;;;;;;69.45;50.47;;;18.10;52.90;;;;;;4926150;28;98084;-68
2022/03/13 03:40:54;;;;;;;69.80;50.08;;;18.10;52.90;;;;;;4914671;28;95295;-68
2022/03/13 03:43:19;;;;;;;68.38;50.25;;;18.10;53.00;;;;;;4913441;28;94831;-67
2022/03/13 03:45:45;;;;;;;68.47;50.35;;;18.10;52.90;;;;;;4908512;28;96738;-67
2022/03/13 03:48:10;;;;;;;68.63;50.15;;;18.10;52.90;;;;;;4908741;28;97333;-67
2022/03/13 03:50:37;;;;;;;69.13;50.22;;;18.10;52.80;;;;;;4921169;28;95080;-68
2022/03/13 03:53:02;;;;;;;68.50;50.17;;;18.10;52.90;;;;;;4914305;28;94390;-68
2022/03/13 03:55:28;;;;;;;68.43;50.35;;;18.10;52.80;;;;;;4908601;28;95814;-68
2022/03/13 03:57:56;;;;;;;68.80;50.30;;;18.10;52.80;;;;;;4914982;28;95237;-68
2022/03/13 04:00:25;;;;;;;68.03;50.17;;;18.10;52.90;;;;;;4912332;28;97692;-68
2022/03/13 04:02:51;;;;;;;68.68;50.17;;;18.10;52.80;;;;;;4915992;28;95760;-68
2022/03/13 04:05:16;;;;;;;68.82;50.22;;;18.00;52.80;;;;;;4915104;28;95365;-68
2022/03/13 04:07:42;;;;;;;68.95;50.50;;;18.00;52.70;;;;;;4916384;28;97843;-68
2022/03/13 04:10:09;;;;;;;68.75;50.38;;;18.00;52.70;;;;;;4909354;28;94805;-68
2022/03/13 04:12:35;;;;;;;68.03;50.15;;;18.00;52.70;;;;;;4914643;28;95456;-68
2022/03/13 04:15:02;;;;;;;68.68;50.20;;;18.00;52.70;;;;;;4909725;28;95679;-68
2022/03/13 04:17:28;;;;;;;68.35;50.28;;;18.00;52.70;;;;;;4909854;28;94539;-68
2022/03/13 04:19:54;;;;;;;68.65;50.47;;;18.00;52.70;;;;;;4925821;28;95091;-68
2022/03/13 04:22:20;;;;;;;69.28;50.65;;;18.00;52.70;;;;;;4914289;28;96802;-67
2022/03/13 04:24:45;;;;;;;68.82;50.58;;;18.00;52.70;;;;;;4908396;28;98886;-67
2022/03/13 04:27:11;;;;;;;68.07;50.20;;;18.00;52.70;;;;;;4915459;28;96665;-68
2022/03/13 04:29:37;;;;;;;68.38;50.25;;;18.00;52.80;;;;;;4906659;28;95208;-68
2022/03/13 04:32:08;;;;;;;68.22;50.15;;;17.90;52.70;;;;;;4920336;28;95132;-68
2022/03/13 04:34:33;;;;;;;67.28;49.67;;;18.00;52.70;;;;;;4909712;28;95323;-67
2022/03/13 04:37:00;;;;;;;68.75;50.13;;;18.00;52.70;;;;;;4917890;28;95829;-68
2022/03/13 04:39:26;;;;;;;67.70;50.05;;;17.90;52.70;;;;;;4907446;28;95117;-68
2022/03/13 04:41:51;;;;;;;68.15;50.00;;;18.00;52.70;;;;;;4917956;28;94526;-68
2022/03/13 04:44:18;;;;;;;68.35;50.35;;;17.90;52.70;;;;;;4909208;28;96268;-68
2022/03/13 04:46:43;;;;;;;67.97;50.00;;;17.90;52.70;;;;;;4906498;28;95962;-68
2022/03/13 04:49:09;;;;;;;68.07;50.00;;;17.90;52.60;;;;;;4907668;28;96493;-67
2022/03/13 04:51:35;;;;;;;68.47;50.35;;;17.90;52.70;;;;;;4916990;28;95538;-68
2022/03/13 04:54:00;;;;;;;68.95;50.33;;;17.90;52.70;;;;;;4911815;28;96009;-68
2022/03/13 04:56:26;;;;;;;67.70;50.17;;;17.90;52.70;;;;;;4911079;28;95105;-68
2022/03/13 04:58:52;;;;;;;68.10;49.97;;;17.90;52.80;;;;;;4921375;28;95848;-68
2022/03/13 05:01:19;;;;;;;67.90;49.97;;;17.90;52.60;;;;;;4917632;28;94954;-68
2022/03/13 05:03:45;;;;;;;68.25;50.33;;;17.90;52.60;;;;;;4912353;28;95334;-68
2022/03/13 05:06:11;;;;;;;68.82;50.35;;;17.90;52.60;;;;;;4906774;28;96138;-68
2022/03/13 05:08:37;;;;;;;68.25;50.22;;;17.90;52.70;;;;;;4918082;28;95332;-67
2022/03/13 05:11:06;;;;;;;68.10;50.25;;;17.90;52.70;;;;;;4911544;28;95325;-68
2022/03/13 05:13:33;;;;;;;68.22;50.08;;;17.90;52.80;;;;;;4917230;28;97081;-67
2022/03/13 05:15:59;;;;;;;68.30;49.90;;;17.90;52.90;;;;;;4905688;28;101989;-68
2022/03/13 05:18:24;;;;;;;67.63;49.80;;;17.90;52.90;;;;;;4911946;28;96037;-68
2022/03/13 05:20:50;;;;;;;70.03;50.80;;;18.00;53.00;;;;;;4910594;28;95497;-68
2022/03/13 05:23:16;;;;;;;67.97;50.03;;;18.00;53.10;;;;;;4912642;28;95227;-68
2022/03/13 05:25:41;;;;;;;68.20;50.15;;;18.10;53.00;;;;;;4908061;28;95858;-67
2022/03/13 05:28:08;;;;;;;68.47;50.38;;;18.20;52.90;;;;;;4919429;28;96295;-68
2022/03/13 05:30:34;;;;;;;69.03;50.65;;;18.20;52.80;;;;;;4906209;28;94408;-68
2022/03/13 05:33:00;;;;;;;68.53;50.33;;;18.30;52.70;;;;;;4915700;28;95003;-68
2022/03/13 05:35:27;;;;;;;68.57;50.33;;;18.40;52.50;;;;;;4926716;28;96186;-67
2022/03/13 05:37:52;;;;;;;69.93;50.30;;;18.50;52.40;;;;;;4907445;28;96128;-67
2022/03/13 05:40:20;;;;;;;68.57;50.05;;;18.60;52.40;;;;;;4907758;28;95168;-68
2022/03/13 05:42:49;;;;;;;68.10;49.85;;;18.60;52.20;;;;;;4912938;28;99577;-68
2022/03/13 05:45:16;;;;;;;68.00;50.28;;;18.60;52.10;;;;;;4907721;28;95576;-67
2022/03/13 05:47:47;;;;;;;67.97;49.95;;;18.70;52.00;;;;;;4899689;28;95908;-68
2022/03/13 05:50:13;;;;;;;69.15;50.45;;;18.70;51.80;;;;;;4908661;28;95656;-68
2022/03/13 05:52:40;;;;;;;68.50;50.35;;;18.80;51.80;;;;;;4916380;28;96958;-67
2022/03/13 05:55:07;;;;;;;68.43;50.13;;;18.80;51.80;;;;;;4912018;28;94868;-68
2022/03/13 05:57:33;;;;;;;68.60;50.42;;;18.80;51.60;;;;;;4931818;28;98041;-68
2022/03/13 05:59:58;;;;;;;69.97;50.58;;;18.90;51.60;;;;;;4911153;28;94671;-67
2022/03/13 06:02:24;;;;;;;68.28;50.30;;;19.00;51.50;;;;;;4919102;28;96176;-68
2022/03/13 06:04:51;;;;;;;68.75;50.50;;;19.00;51.40;;;;;;4911193;28;97045;-68
2022/03/13 06:07:17;;;;;;;68.13;50.25;;;19.00;51.30;;;;;;4919218;28;94972;-68
2022/03/13 06:09:42;;;;;;;68.55;50.30;;;19.00;51.30;;;;;;4909330;28;96595;-68
2022/03/13 06:12:08;;;;;;;69.13;50.65;;;19.00;51.10;;;;;;4915403;28;95877;-67
2022/03/13 06:14:34;;;;;;;68.30;50.30;;;19.10;51.00;;;;;;4921686;28;99094;-68
2022/03/13 06:17:00;;;;;;;68.05;50.17;;;19.10;51.00;;;;;;4904079;28;94676;-68
2022/03/13 06:19:25;;;;;;;68.32;50.40;;;19.10;51.00;;;;;;4915801;28;94134;-67
2022/03/13 06:21:51;;;;;;;68.25;50.13;;;19.10;51.00;;;;;;4915379;28;97288;-68
2022/03/13 06:24:18;;;;;;;68.45;50.42;;;19.10;50.90;;;;;;4917413;28;96071;-68
2022/03/13 06:26:44;;;;;;;67.90;50.20;;;19.20;51.00;;;;;;4911875;28;97824;-68
2022/03/13 06:29:13;;;;;;;69.10;50.55;;;19.20;51.00;;;;;;4913559;28;95666;-67
2022/03/13 06:31:40;;;;;;;69.07;50.40;;;19.20;51.60;;;;;;4914256;28;95177;-68
2022/03/13 06:34:05;;;;;;;68.45;50.63;;;19.30;51.00;;;;;;4916643;28;96390;-68
2022/03/13 06:36:31;;;;;;;69.03;50.63;;;19.30;50.90;;;;;;4912609;28;94965;-67
2022/03/13 06:38:56;;;;;;;69.57;51.08;;;19.30;50.80;;;;;;4920400;28;95124;-68
2022/03/13 06:41:22;;;;;;;68.88;50.78;;;19.40;50.80;;;;;;4907233;28;96233;-68
2022/03/13 06:43:48;;;;;;;68.68;50.55;;;19.40;50.70;;;;;;4917264;28;95298;-68
2022/03/13 06:46:14;;;;;;;68.63;50.50;;;19.40;50.60;;;;;;4906574;28;94814;-68
2022/03/13 06:48:40;;;;;;;69.68;50.83;;;19.50;50.60;;;;;;4907744;28;95547;-68
2022/03/13 06:51:06;;;;;;;68.43;50.15;;;19.50;50.50;;;;;;4912186;28;96290;-68
2022/03/13 06:53:35;;;;;;;69.85;50.67;;;19.50;50.40;;;;;;4922504;28;95051;-68
2022/03/13 06:56:01;;;;;;;69.68;51.03;;;19.50;50.40;;;;;;4909519;28;96294;-68
2022/03/13 06:58:26;;;;;;;68.97;50.60;;;19.60;50.40;;;;;;4917924;28;96750;-67
2022/03/13 07:00:52;;;;;;;69.45;50.75;;;19.50;50.20;;;;;;4905648;28;95756;-68
2022/03/13 07:03:18;;;;;;;67.90;50.10;;;19.60;50.20;;;;;;4915220;28;94941;-67
2022/03/13 07:05:43;;;;;;;69.30;50.85;;;19.60;50.10;;;;;;4912610;28;95127;-68
2022/03/13 07:08:09;;;;;;;69.30;50.47;;;19.60;50.10;;;;;;4909157;28;97209;-68
2022/03/13 07:10:35;;;;;;;68.75;50.47;;;19.60;50.10;;;;;;4927306;28;97067;-68
2022/03/13 07:13:00;;;;;;;68.45;50.58;;;19.70;50.10;;;;;;4917182;28;97145;-68
2022/03/13 07:15:29;;;;;;;68.65;50.60;;;19.60;49.90;;;;;;4909115;28;96452;-68
2022/03/13 07:17:55;;;;;;;69.05;50.33;;;19.70;50.00;;;;;;4903025;28;96204;-68
2022/03/13 07:20:21;;;;;;;69.85;50.78;;;19.70;50.00;;;;;;4909020;28;96688;-68
2022/03/13 07:22:47;;;;;;;69.53;50.85;;;19.70;49.90;;;;;;4916061;28;97259;-68
2022/03/13 07:25:14;;;;;;;68.60;50.53;;;19.70;49.80;;;;;;4914433;28;96269;-68
2022/03/13 07:27:40;;;;;;;68.82;50.45;;;19.70;49.90;;;;;;4905930;28;95198;-68
2022/03/13 07:30:08;;;;;;;68.72;50.53;;;19.70;49.70;;;;;;4907727;28;97856;-67
2022/03/13 07:32:34;;;;;;;68.97;50.75;;;19.70;49.80;;;;;;4913826;28;95385;-68
2022/03/13 07:35:00;;;;;;;69.00;50.65;;;19.70;49.80;;;;;;4911104;28;95638;-68
2022/03/13 07:37:26;;;;;;;69.00;50.65;;;19.70;49.70;;;;;;4916410;28;94907;-68
2022/03/13 07:39:53;;;;;;;69.43;50.80;;;19.70;49.80;;;;;;4916469;28;97333;-68
2022/03/13 07:42:18;;;;;;;68.78;50.63;;;19.70;49.70;;;;;;4907608;28;96210;-67
2022/03/13 07:44:44;;;;;;;68.93;50.83;;;19.70;49.70;;;;;;4914224;28;95046;-68
2022/03/13 07:47:11;;;;;;;69.07;50.47;;;19.70;49.70;;;;;;4906006;28;94975;-68
2022/03/13 07:49:37;;;;;;;68.65;50.50;;;19.70;49.70;;;;;;4909816;28;95862;-68
2022/03/13 07:52:04;;;;;;;68.78;50.60;;;19.70;49.70;;;;;;4911494;28;95600;-68
2022/03/13 07:54:30;;;;;;;68.70;50.50;;;19.70;49.50;;;;;;4914996;28;95604;-68
2022/03/13 07:56:55;;;;;;;68.85;50.47;;;19.70;49.50;;;;;;4910651;28;94368;-68
2022/03/13 07:59:21;;;;;;;68.40;50.17;;;19.70;49.50;;;;;;4916945;28;95807;-68
2022/03/13 08:01:47;;;;;;;68.55;50.35;;;19.70;49.40;;;;;;4904198;28;95187;-68
2022/03/13 08:04:14;;;;;;;69.13;50.65;;;19.70;49.50;;;;;;4911805;28;95896;-67
2022/03/13 08:06:40;;;;;;;69.30;50.75;;;19.70;49.40;;;;;;4911072;28;95059;-68
2022/03/13 08:09:07;;;;;;;70.18;50.85;;;19.70;49.40;;;;;;4912734;28;94712;-68
2022/03/13 08:11:34;;;;;;;68.90;50.40;;;19.70;49.30;;;;;;4914232;28;94993;-68
2022/03/13 08:14:01;;;;;;;69.40;50.55;;;19.70;49.20;;;;;;4916660;28;95781;-68
2022/03/13 08:16:29;;;;;;;69.28;50.58;;;19.70;49.20;;;;;;4908169;28;94655;-67
2022/03/13 08:18:55;;;;;;;68.65;50.20;;;19.80;49.30;;;;;;4913241;28;95713;-68
2022/03/13 08:21:21;;;;;;;68.57;50.33;;;19.70;49.20;;;;;;4909737;28;97694;-68
2022/03/13 08:23:47;;;;;;;68.88;50.47;;;19.70;49.20;;;;;;4913746;28;96421;-68
2022/03/13 08:26:12;;;;;;;68.88;50.55;;;19.70;49.10;;;;;;4910336;28;95615;-68
2022/03/13 08:28:41;;;;;;;69.03;50.75;;;19.70;49.10;;;;;;4915137;28;96189;-67
2022/03/13 08:31:07;;;;;;;68.82;50.53;;;19.70;49.10;;;;;;4914642;28;95154;-68
2022/03/13 08:33:33;;;;;;;69.05;50.47;;;19.60;49.00;;;;;;4909867;28;97194;-66
2022/03/13 08:35:59;;;;;;;68.82;50.72;;;19.60;49.10;;;;;;4905086;28;97656;-71
2022/03/13 08:38:25;;;;;;;69.22;50.35;;;19.60;49.10;;;;;;4913527;28;95677;-69
2022/03/13 08:40:50;;;;;;;69.10;50.55;;;19.60;49.10;;;;;;4908596;28;95413;-69
2022/03/13 08:43:16;;;;;;;70.43;50.75;;;19.60;49.20;;;;;;4910046;28;94917;-69
2022/03/13 08:45:42;;;;;;;69.55;50.45;;;19.60;49.30;;;;;;4916351;28;94278;-70
2022/03/13 08:48:08;;;;;;;70.05;50.90;;;19.60;49.30;;;;;;4894813;28;95479;-69
2022/03/13 08:50:34;;;;;;;69.53;50.58;;;19.60;49.30;;;;;;4911089;28;97507;-70
2022/03/13 08:53:01;;;;;;;69.55;50.78;;;19.60;49.30;;;;;;4918332;28;98937;-70
2022/03/13 08:55:27;;;;;;;68.82;50.58;;;19.50;49.20;;;;;;4915681;28;94672;-69
2022/03/13 08:57:53;;;;;;;70.25;50.80;;;19.60;49.30;;;;;;4905443;28;95433;-70
2022/03/13 09:00:21;;;;;;;69.43;50.80;;;19.50;49.20;;;;;;4911689;28;95352;-70
2022/03/13 09:02:47;;;;;;;70.10;50.83;;;19.50;49.20;;;;;;4910701;28;95477;-70
2022/03/13 09:05:13;;;;;;;68.70;50.45;;;19.50;49.20;;;;;;4906567;28;101302;-69
2022/03/13 09:07:39;;;;;;;69.72;50.97;;;19.40;49.30;;;;;;4926711;28;97191;-69
2022/03/13 09:10:11;;;;;;;72.78;50.85;;;19.40;49.30;;;;;;4932270;28;96626;-70
2022/03/13 09:12:38;;;;;;;69.40;50.83;;;19.40;49.50;;;;;;4901062;28;96824;-71
2022/03/13 09:15:05;;;;;;;69.97;50.75;;;19.40;49.60;;;;;;4905431;28;95360;-70
2022/03/13 09:17:31;;;;;;;69.07;50.47;;;19.40;49.80;;;;;;4897127;28;96980;-73
2022/03/13 09:19:56;;;;;;;72.20;50.65;;;19.40;50.00;;;;;;4906605;28;96711;-74
2022/03/13 09:22:30;;;;;;;73.18;50.95;;;19.40;50.30;;;;;;4907026;28;95606;-71
2022/03/13 09:24:57;;;;;;;70.10;50.92;;;19.50;50.60;;;;;;4910277;28;97457;-74
2022/03/13 09:27:26;;;;;;;72.93;51.58;;;19.40;50.60;;;;;;4913820;28;95374;-74
2022/03/13 09:29:52;;;;;;;71.05;51.08;;;19.50;50.70;;;;;;4912838;28;104283;-76
2022/03/13 09:32:18;;;;;;;73.20;51.25;;;19.50;50.90;;;;;;4915586;28;95052;-73
2022/03/13 09:34:44;;;;;;;70.38;51.05;;;19.50;51.40;;;;;;4917349;28;97626;-71
2022/03/13 09:37:10;;;;;;;75.80;51.30;;;19.50;50.70;;;;;;4915256;28;95266;-71
2022/03/13 09:39:36;;;;;;;73.32;51.08;;;19.50;50.70;;;;;;4913637;28;95096;-73
2022/03/13 09:42:01;;;;;;;72.30;51.20;;;19.50;50.60;;;;;;4906116;28;97682;-72
2022/03/13 09:44:28;;;;;;;72.07;51.35;;;19.50;50.60;;;;;;4917629;28;96769;-72
2022/03/13 09:46:54;;;;;;;70.72;51.10;;;19.50;50.60;;;;;;4932984;28;97100;-73
2022/03/13 09:49:21;;;;;;;72.72;51.10;;;19.50;50.60;;;;;;4907524;28;98239;-71
2022/03/13 09:51:47;;;;;;;71.68;50.85;;;19.50;50.60;;;;;;4910312;28;96253;-72
2022/03/13 09:54:13;;;;;;;71.22;51.05;;;19.50;50.60;;;;;;4916142;28;96160;-72
2022/03/13 09:56:39;;;;;;;69.97;51.15;;;19.50;50.60;;;;;;4920225;28;94680;-72
2022/03/13 09:59:04;;;;;;;72.28;51.08;;;19.50;50.60;;;;;;4914639;28;94503;-73
2022/03/13 10:01:30;;;;;;;71.32;51.35;;;19.40;50.50;;;;;;4918682;28;95646;-73
2022/03/13 10:03:56;;;;;;;71.18;51.13;;;19.40;50.50;;;;;;4910154;28;95530;-72
2022/03/13 10:06:22;;;;;;;75.47;51.35;;;19.50;50.50;;;;;;4916542;28;96169;-74
2022/03/13 10:08:47;;;;;;;73.13;51.13;;;19.50;50.50;;;;;;4907248;28;97400;-72
2022/03/13 10:11:13;;;;;;;73.10;51.47;;;19.40;50.50;;;;;;4912479;28;95167;-74
2022/03/13 10:13:46;;;;;;;73.72;51.17;;;19.40;50.50;;;;;;4914788;28;94652;-74
2022/03/13 10:16:22;;;;;;;71.32;51.25;;;19.50;50.50;;;;;;4921110;28;96662;-74
2022/03/13 10:18:48;;;;;;;74.10;51.50;;;19.40;50.40;;;;;;4902751;28;95331;-75
2022/03/13 10:21:17;;;;;;;73.47;51.80;;;19.50;50.40;;;;;;4908558;28;94495;-72
2022/03/13 10:23:43;;;;;;;71.93;51.42;;;19.40;50.40;;;;;;4915528;28;94388;-73
2022/03/13 10:26:09;;;;;;;72.15;51.45;;;19.50;50.40;;;;;;4909677;28;96337;-75
2022/03/13 10:28:37;;;;;;;72.45;51.63;;;19.50;50.40;;;;;;4925042;28;101436;-76
2022/03/13 10:31:02;;;;;;;71.95;51.47;;;19.50;50.40;;;;;;4921150;28;95822;-76
2022/03/13 10:33:29;;;;;;;72.25;51.58;;;19.50;50.40;;;;;;4913481;28;95681;-76
2022/03/13 10:36:15;;;;;;;72.57;51.50;;;19.50;50.40;;;;;;4917223;28;96939;-76
2022/03/13 10:38:41;;;;;;;71.57;51.25;;;19.50;50.40;;;;;;4910645;28;96053;-76
2022/03/13 10:41:11;;;;;;;72.18;51.33;;;19.50;50.40;;;;;;4921873;28;94885;-76
2022/03/13 10:43:54;;;;;;;72.53;51.83;;;19.50;50.30;;;;;;4905217;28;96933;-76
2022/03/13 10:46:30;;;;;;;73.80;51.92;;;19.50;50.30;;;;;;4915995;28;95589;-73
2022/03/13 10:48:58;;;;;;;71.90;51.47;;;19.50;50.30;;;;;;4903825;28;99417;-74
2022/03/13 10:51:40;;;;;;;73.57;51.53;;;19.50;50.20;;;;;;4907820;28;94999;-75
2022/03/13 10:54:06;;;;;;;73.07;51.60;;;19.40;50.20;;;;;;4911949;28;100243;-73
2022/03/13 10:56:33;;;;;;;73.47;51.55;;;19.40;50.20;;;;;;4914670;28;97118;-75
2022/03/13 10:59:10;;;;;;;71.65;51.55;;;19.50;50.20;;;;;;4905081;28;96529;-74
2022/03/13 11:01:35;;;;;;;72.47;51.53;;;19.40;50.20;;;;;;4906574;28;96722;-75
2022/03/13 11:04:06;;;;;;;73.32;51.30;;;19.50;50.20;;;;;;4911055;28;95318;-76
2022/03/13 11:06:32;;;;;;;71.87;51.40;;;19.50;50.20;;;;;;4909248;28;98464;-75
2022/03/13 11:09:00;;;;;;;72.40;51.58;;;19.40;50.10;;;;;;4906543;28;97368;-75
2022/03/13 11:11:27;;;;;;;72.57;51.47;;;19.50;50.20;;;;;;4916997;28;98608;-75
2022/03/13 11:14:01;;;;;;;72.10;51.40;;;19.50;50.20;;;;;;4910411;28;95471;-75
2022/03/13 11:16:33;;;;;;;71.88;51.33;;;19.50;50.20;;;;;;4930000;28;98213;-75
2022/03/13 11:19:08;;;;;;;72.07;51.58;;;19.50;50.10;;;;;;4908518;28;97135;-75
2022/03/13 11:21:34;;;;;;;72.13;51.40;;;19.50;50.10;;;;;;4906877;28;96760;-76
2022/03/13 11:24:00;;;;;;;72.63;51.63;;;19.50;50.10;;;;;;4907948;28;100140;-75
2022/03/13 11:26:31;;;;;;;73.85;51.65;;;19.50;50.20;;;;;;4915159;28;96521;-75
2022/03/13 11:28:58;;;;;;;71.63;51.60;;;19.50;50.10;;;;;;4914738;28;95925;-75
2022/03/13 11:31:37;;;;;;;73.03;51.55;;;19.50;50.20;;;;;;4912225;28;95420;-75
2022/03/13 11:34:14;;;;;;;72.20;51.42;;;19.50;50.20;;;;;;4911081;28;95543;-76
2022/03/13 11:36:41;;;;;;;73.90;51.35;;;19.50;50.10;;;;;;4909688;28;95646;-76
2022/03/13 11:39:09;;;;;;;72.75;51.35;;;19.50;50.10;;;;;;4909777;28;96748;-73
2022/03/13 11:41:39;;;;;;;72.47;51.38;;;19.50;50.10;;;;;;4905561;28;95055;-76
2022/03/13 11:44:23;;;;;;;71.88;51.35;;;19.50;50.20;;;;;;4908776;28;101030;-76
2022/03/13 11:46:53;;;;;;;73.18;51.28;;;19.50;50.10;;;;;;4928056;28;96924;-75
2022/03/13 11:49:52;;;;;;;71.20;51.17;;;19.50;50.20;;;;;;4905351;28;96303;-73
2022/03/13 11:52:25;;;;;;;72.88;51.35;;;19.50;50.20;;;;;;4913317;28;94781;-74
2022/03/13 11:54:55;;;;;;;73.05;51.45;;;19.50;50.20;;;;;;4906424;28;96529;-72
2022/03/13 11:57:54;;;;;;;71.78;51.38;;;19.50;50.20;;;;;;4913125;28;101539;-74
2022/03/13 12:00:20;;;;;;;72.53;51.33;;;19.50;50.30;;;;;;4911811;28;95622;-75
2022/03/13 12:02:46;;;;;;;74.10;51.72;;;19.50;50.30;;;;;;4912655;28;95707;-77
2022/03/13 12:05:31;;;;;;;73.10;51.45;;;19.50;50.40;;;;;;4919324;28;94551;-74
2022/03/13 12:08:05;;;;;;;73.55;51.72;;;19.50;50.40;;;;;;4900247;28;95271;-75
2022/03/13 12:10:41;;;;;;;74.00;51.65;;;19.50;50.50;;;;;;4907504;28;96219;-70
2022/03/13 12:13:12;;;;;;;73.00;51.55;;;19.50;50.60;;;;;;4916387;28;97573;-73
2022/03/13 12:15:42;;;;;;;75.82;51.83;;;19.50;51.40;;;;;;4898609;28;94736;-72
2022/03/13 12:18:25;;;;;;;76.10;52.67;;;19.50;51.10;;;;;;4914881;28;100746;-72
2022/03/13 12:20:51;;;;;;;79.15;53.40;;;19.50;51.40;;;;;;4905007;28;95161;-73
2022/03/13 12:23:28;;;;;;;80.43;54.05;;;19.50;51.80;;;;;;4899219;28;96411;-69
2022/03/13 12:26:17;;;;;;;84.03;54.05;;;19.50;52.30;;;;;;4916783;28;96332;-72
2022/03/13 12:28:43;;;;;;;79.78;54.78;;;19.60;52.60;;;;;;4901934;28;95475;-72